sensor_id;sensor_type;location;lat;lon;timestamp;P1;durP1;ratioP1;P2;durP2;ratioP2
38783;SDS011;24531;45.502;12.238;2023-11-18T00:02:23;47.50;;;29.10;;
38783;SDS011;24531;45.502;12.238;2023-11-18T00:04:50;43.53;;;28.73;;
38783;SDS011;24531;45.502;12.238;2023-11-18T00:07:16;49.50;;;28.73;;
38783;SDS011;24531;45.502;12.238;2023-11-18T00:09:42;47.67;;;28.35;;
38783;SDS011;24531;45.502;12.238;2023-11-18T00:12:11;42.28;;;28.70;;
38783;SDS011;24531;45.502;12.238;2023-11-18T00:14:37;44.88;;;29.20;;
38783;SDS011;24531;45.502;12.238;2023-11-18T00:17:02;44.80;;;28.92;;
38783;SDS011;24531;45.502;12.238;2023-11-18T00:19:29;42.08;;;28.15;;
38783;SDS011;24531;45.502;12.238;2023-11-18T00:21:55;42.35;;;26.10;;
38783;SDS011;24531;45.502;12.238;2023-11-18T00:24:20;37.53;;;27.38;;
38783;SDS011;24531;45.502;12.238;2023-11-18T00:26:46;43.38;;;27.77;;
38783;SDS011;24531;45.502;12.238;2023-11-18T00:29:12;36.95;;;24.90;;
38783;SDS011;24531;45.502;12.238;2023-11-18T00:31:38;40.72;;;26.63;;
38783;SDS011;24531;45.502;12.238;2023-11-18T00:34:04;41.75;;;26.80;;
38783;SDS011;24531;45.502;12.238;2023-11-18T00:36:30;43.70;;;27.83;;
38783;SDS011;24531;45.502;12.238;2023-11-18T00:38:56;44.25;;;27.25;;
38783;SDS011;24531;45.502;12.238;2023-11-18T00:41:22;41.83;;;26.63;;
38783;SDS011;24531;45.502;12.238;2023-11-18T00:43:48;44.90;;;26.90;;
38783;SDS011;24531;45.502;12.238;2023-11-18T00:46:13;44.08;;;26.25;;
38783;SDS011;24531;45.502;12.238;2023-11-18T00:48:39;37.70;;;26.58;;
38783;SDS011;24531;45.502;12.238;2023-11-18T00:51:08;36.60;;;24.90;;
38783;SDS011;24531;45.502;12.238;2023-11-18T00:53:33;38.90;;;25.33;;
38783;SDS011;24531;45.502;12.238;2023-11-18T00:55:59;41.88;;;25.33;;
38783;SDS011;24531;45.502;12.238;2023-11-18T00:58:25;39.42;;;27.60;;
38783;SDS011;24531;45.502;12.238;2023-11-18T01:00:51;36.95;;;25.75;;
38783;SDS011;24531;45.502;12.238;2023-11-18T01:03:17;38.20;;;25.27;;
38783;SDS011;24531;45.502;12.238;2023-11-18T01:05:43;38.45;;;25.42;;
38783;SDS011;24531;45.502;12.238;2023-11-18T01:08:09;38.42;;;25.85;;
38783;SDS011;24531;45.502;12.238;2023-11-18T01:10:35;39.55;;;24.38;;
38783;SDS011;24531;45.502;12.238;2023-11-18T01:13:00;42.15;;;25.52;;
38783;SDS011;24531;45.502;12.238;2023-11-18T01:15:26;37.63;;;24.48;;
38783;SDS011;24531;45.502;12.238;2023-11-18T01:17:52;45.88;;;26.95;;
38783;SDS011;24531;45.502;12.238;2023-11-18T01:20:18;38.45;;;23.80;;
38783;SDS011;24531;45.502;12.238;2023-11-18T01:22:47;43.33;;;24.92;;
38783;SDS011;24531;45.502;12.238;2023-11-18T01:25:14;42.05;;;26.15;;
38783;SDS011;24531;45.502;12.238;2023-11-18T01:27:42;39.67;;;24.67;;
38783;SDS011;24531;45.502;12.238;2023-11-18T01:30:12;37.55;;;25.38;;
38783;SDS011;24531;45.502;12.238;2023-11-18T01:32:38;46.50;;;26.92;;
38783;SDS011;24531;45.502;12.238;2023-11-18T01:35:05;42.10;;;24.85;;
38783;SDS011;24531;45.502;12.238;2023-11-18T01:37:33;38.55;;;24.30;;
38783;SDS011;24531;45.502;12.238;2023-11-18T01:39:58;36.88;;;23.30;;
38783;SDS011;24531;45.502;12.238;2023-11-18T01:42:24;33.88;;;22.63;;
38783;SDS011;24531;45.502;12.238;2023-11-18T01:44:50;36.88;;;22.50;;
38783;SDS011;24531;45.502;12.238;2023-11-18T01:47:16;34.85;;;22.45;;
38783;SDS011;24531;45.502;12.238;2023-11-18T01:49:41;31.85;;;20.90;;
38783;SDS011;24531;45.502;12.238;2023-11-18T01:52:08;28.63;;;20.80;;
38783;SDS011;24531;45.502;12.238;2023-11-18T01:54:36;33.95;;;21.70;;
38783;SDS011;24531;45.502;12.238;2023-11-18T01:57:03;30.25;;;19.50;;
38783;SDS011;24531;45.502;12.238;2023-11-18T01:59:30;30.98;;;20.20;;
38783;SDS011;24531;45.502;12.238;2023-11-18T02:01:58;30.75;;;20.48;;
38783;SDS011;24531;45.502;12.238;2023-11-18T02:04:24;31.50;;;20.70;;
38783;SDS011;24531;45.502;12.238;2023-11-18T02:06:50;32.72;;;20.33;;
38783;SDS011;24531;45.502;12.238;2023-11-18T02:09:17;36.05;;;22.13;;
38783;SDS011;24531;45.502;12.238;2023-11-18T02:11:45;27.90;;;18.63;;
38783;SDS011;24531;45.502;12.238;2023-11-18T02:14:41;30.15;;;19.17;;
38783;SDS011;24531;45.502;12.238;2023-11-18T02:17:10;32.97;;;20.05;;
38783;SDS011;24531;45.502;12.238;2023-11-18T02:19:39;30.75;;;19.73;;
38783;SDS011;24531;45.502;12.238;2023-11-18T02:22:06;30.48;;;19.73;;
38783;SDS011;24531;45.502;12.238;2023-11-18T02:24:33;29.58;;;20.23;;
38783;SDS011;24531;45.502;12.238;2023-11-18T02:27:02;30.40;;;19.92;;
38783;SDS011;24531;45.502;12.238;2023-11-18T02:29:37;28.65;;;19.40;;
38783;SDS011;24531;45.502;12.238;2023-11-18T02:35:02;30.85;;;20.33;;
38783;SDS011;24531;45.502;12.238;2023-11-18T02:37:36;31.83;;;19.88;;
38783;SDS011;24531;45.502;12.238;2023-11-18T02:40:04;31.65;;;19.98;;
38783;SDS011;24531;45.502;12.238;2023-11-18T02:42:34;29.30;;;19.23;;
38783;SDS011;24531;45.502;12.238;2023-11-18T02:45:01;28.85;;;20.10;;
38783;SDS011;24531;45.502;12.238;2023-11-18T02:47:28;30.88;;;20.77;;
38783;SDS011;24531;45.502;12.238;2023-11-18T02:49:54;28.65;;;19.67;;
38783;SDS011;24531;45.502;12.238;2023-11-18T02:52:21;30.40;;;19.77;;
38783;SDS011;24531;45.502;12.238;2023-11-18T02:54:47;31.63;;;20.42;;
38783;SDS011;24531;45.502;12.238;2023-11-18T02:57:13;34.05;;;20.13;;
38783;SDS011;24531;45.502;12.238;2023-11-18T02:59:39;28.30;;;19.67;;
38783;SDS011;24531;45.502;12.238;2023-11-18T03:02:04;31.65;;;21.23;;
38783;SDS011;24531;45.502;12.238;2023-11-18T03:04:31;28.60;;;20.25;;
38783;SDS011;24531;45.502;12.238;2023-11-18T03:06:56;30.45;;;20.25;;
38783;SDS011;24531;45.502;12.238;2023-11-18T03:09:22;27.85;;;19.35;;
38783;SDS011;24531;45.502;12.238;2023-11-18T03:11:52;30.88;;;21.00;;
38783;SDS011;24531;45.502;12.238;2023-11-18T03:14:19;29.60;;;19.95;;
38783;SDS011;24531;45.502;12.238;2023-11-18T03:16:45;29.08;;;20.08;;
38783;SDS011;24531;45.502;12.238;2023-11-18T03:19:11;28.80;;;20.33;;
38783;SDS011;24531;45.502;12.238;2023-11-18T03:21:38;28.92;;;19.70;;
38783;SDS011;24531;45.502;12.238;2023-11-18T03:24:04;28.85;;;19.40;;
38783;SDS011;24531;45.502;12.238;2023-11-18T03:26:30;30.38;;;19.92;;
38783;SDS011;24531;45.502;12.238;2023-11-18T03:28:57;30.45;;;19.80;;
38783;SDS011;24531;45.502;12.238;2023-11-18T03:31:22;29.90;;;19.90;;
38783;SDS011;24531;45.502;12.238;2023-11-18T03:33:48;27.45;;;19.55;;
38783;SDS011;24531;45.502;12.238;2023-11-18T03:36:14;27.52;;;19.98;;
38783;SDS011;24531;45.502;12.238;2023-11-18T03:38:42;26.63;;;18.90;;
38783;SDS011;24531;45.502;12.238;2023-11-18T03:41:08;28.20;;;19.40;;
38783;SDS011;24531;45.502;12.238;2023-11-18T03:43:34;31.75;;;19.27;;
38783;SDS011;24531;45.502;12.238;2023-11-18T03:46:00;31.08;;;20.25;;
38783;SDS011;24531;45.502;12.238;2023-11-18T03:48:25;35.53;;;22.15;;
38783;SDS011;24531;45.502;12.238;2023-11-18T03:50:51;27.98;;;19.50;;
38783;SDS011;24531;45.502;12.238;2023-11-18T03:53:17;27.85;;;20.10;;
38783;SDS011;24531;45.502;12.238;2023-11-18T03:55:43;32.55;;;21.17;;
38783;SDS011;24531;45.502;12.238;2023-11-18T03:58:09;30.60;;;19.83;;
38783;SDS011;24531;45.502;12.238;2023-11-18T04:00:34;32.10;;;20.40;;
38783;SDS011;24531;45.502;12.238;2023-11-18T04:03:00;31.75;;;20.27;;
38783;SDS011;24531;45.502;12.238;2023-11-18T04:05:26;31.65;;;19.70;;
38783;SDS011;24531;45.502;12.238;2023-11-18T04:07:51;30.02;;;20.77;;
38783;SDS011;24531;45.502;12.238;2023-11-18T04:10:17;30.45;;;20.83;;
38783;SDS011;24531;45.502;12.238;2023-11-18T04:12:44;30.67;;;19.77;;
38783;SDS011;24531;45.502;12.238;2023-11-18T04:15:11;30.90;;;20.02;;
38783;SDS011;24531;45.502;12.238;2023-11-18T04:17:37;27.30;;;20.08;;
38783;SDS011;24531;45.502;12.238;2023-11-18T04:20:03;30.02;;;20.00;;
38783;SDS011;24531;45.502;12.238;2023-11-18T04:22:33;30.30;;;20.85;;
38783;SDS011;24531;45.502;12.238;2023-11-18T04:24:59;31.27;;;19.42;;
38783;SDS011;24531;45.502;12.238;2023-11-18T04:27:24;29.77;;;21.15;;
38783;SDS011;24531;45.502;12.238;2023-11-18T04:29:50;30.35;;;20.83;;
38783;SDS011;24531;45.502;12.238;2023-11-18T04:32:16;32.30;;;21.48;;
38783;SDS011;24531;45.502;12.238;2023-11-18T04:34:41;38.25;;;20.67;;
38783;SDS011;24531;45.502;12.238;2023-11-18T04:37:07;32.08;;;21.90;;
38783;SDS011;24531;45.502;12.238;2023-11-18T04:39:33;29.45;;;20.15;;
38783;SDS011;24531;45.502;12.238;2023-11-18T04:41:59;30.25;;;21.23;;
38783;SDS011;24531;45.502;12.238;2023-11-18T04:44:26;33.42;;;21.65;;
38783;SDS011;24531;45.502;12.238;2023-11-18T04:46:52;32.20;;;21.30;;
38783;SDS011;24531;45.502;12.238;2023-11-18T04:49:18;31.90;;;22.30;;
38783;SDS011;24531;45.502;12.238;2023-11-18T04:51:44;30.95;;;21.15;;
38783;SDS011;24531;45.502;12.238;2023-11-18T04:54:10;31.02;;;21.17;;
38783;SDS011;24531;45.502;12.238;2023-11-18T04:56:36;32.22;;;21.00;;
38783;SDS011;24531;45.502;12.238;2023-11-18T04:59:02;29.40;;;20.63;;
38783;SDS011;24531;45.502;12.238;2023-11-18T05:01:30;30.98;;;20.67;;
38783;SDS011;24531;45.502;12.238;2023-11-18T05:03:56;30.10;;;19.55;;
38783;SDS011;24531;45.502;12.238;2023-11-18T05:06:22;30.77;;;19.52;;
38783;SDS011;24531;45.502;12.238;2023-11-18T05:08:48;32.30;;;20.52;;
38783;SDS011;24531;45.502;12.238;2023-11-18T05:11:14;30.08;;;21.17;;
38783;SDS011;24531;45.502;12.238;2023-11-18T05:13:40;33.08;;;21.02;;
38783;SDS011;24531;45.502;12.238;2023-11-18T05:16:06;30.70;;;20.40;;
38783;SDS011;24531;45.502;12.238;2023-11-18T05:18:32;28.70;;;19.98;;
38783;SDS011;24531;45.502;12.238;2023-11-18T05:21:01;29.70;;;19.55;;
38783;SDS011;24531;45.502;12.238;2023-11-18T05:23:30;27.02;;;18.38;;
38783;SDS011;24531;45.502;12.238;2023-11-18T05:25:56;28.70;;;19.73;;
38783;SDS011;24531;45.502;12.238;2023-11-18T05:28:23;30.98;;;20.13;;
38783;SDS011;24531;45.502;12.238;2023-11-18T05:30:49;29.33;;;19.38;;
38783;SDS011;24531;45.502;12.238;2023-11-18T05:33:15;27.30;;;18.85;;
38783;SDS011;24531;45.502;12.238;2023-11-18T05:35:43;28.85;;;19.75;;
38783;SDS011;24531;45.502;12.238;2023-11-18T05:38:17;31.10;;;19.90;;
38783;SDS011;24531;45.502;12.238;2023-11-18T05:40:46;25.30;;;18.47;;
38783;SDS011;24531;45.502;12.238;2023-11-18T05:43:23;32.25;;;18.88;;
38783;SDS011;24531;45.502;12.238;2023-11-18T05:45:51;27.58;;;18.20;;
38783;SDS011;24531;45.502;12.238;2023-11-18T05:48:35;26.55;;;17.95;;
38783;SDS011;24531;45.502;12.238;2023-11-18T05:51:01;26.50;;;16.75;;
38783;SDS011;24531;45.502;12.238;2023-11-18T05:53:26;34.17;;;19.85;;
38783;SDS011;24531;45.502;12.238;2023-11-18T05:55:52;29.40;;;19.33;;
38783;SDS011;24531;45.502;12.238;2023-11-18T05:58:18;31.05;;;19.85;;
38783;SDS011;24531;45.502;12.238;2023-11-18T06:00:44;29.83;;;18.38;;
38783;SDS011;24531;45.502;12.238;2023-11-18T06:03:11;27.00;;;17.13;;
38783;SDS011;24531;45.502;12.238;2023-11-18T06:05:37;33.53;;;18.58;;
38783;SDS011;24531;45.502;12.238;2023-11-18T06:08:03;28.00;;;18.52;;
38783;SDS011;24531;45.502;12.238;2023-11-18T06:10:29;26.48;;;18.52;;
38783;SDS011;24531;45.502;12.238;2023-11-18T06:12:57;26.88;;;18.08;;
38783;SDS011;24531;45.502;12.238;2023-11-18T06:15:23;23.80;;;17.15;;
38783;SDS011;24531;45.502;12.238;2023-11-18T06:17:49;29.02;;;17.48;;
38783;SDS011;24531;45.502;12.238;2023-11-18T06:20:14;26.10;;;17.63;;
38783;SDS011;24531;45.502;12.238;2023-11-18T06:22:42;23.20;;;16.23;;
38783;SDS011;24531;45.502;12.238;2023-11-18T06:25:08;26.67;;;17.63;;
38783;SDS011;24531;45.502;12.238;2023-11-18T06:27:34;26.50;;;17.90;;
38783;SDS011;24531;45.502;12.238;2023-11-18T06:29:59;27.25;;;17.08;;
38783;SDS011;24531;45.502;12.238;2023-11-18T06:32:25;24.10;;;16.60;;
38783;SDS011;24531;45.502;12.238;2023-11-18T06:34:51;24.08;;;16.48;;
38783;SDS011;24531;45.502;12.238;2023-11-18T06:37:18;29.45;;;16.35;;
38783;SDS011;24531;45.502;12.238;2023-11-18T06:39:44;27.98;;;16.30;;
38783;SDS011;24531;45.502;12.238;2023-11-18T06:42:12;26.65;;;15.90;;
38783;SDS011;24531;45.502;12.238;2023-11-18T06:44:39;22.08;;;14.90;;
38783;SDS011;24531;45.502;12.238;2023-11-18T06:47:05;20.90;;;14.13;;
38783;SDS011;24531;45.502;12.238;2023-11-18T06:49:31;23.33;;;15.00;;
38783;SDS011;24531;45.502;12.238;2023-11-18T06:51:59;25.60;;;15.63;;
38783;SDS011;24531;45.502;12.238;2023-11-18T06:54:28;23.70;;;14.30;;
38783;SDS011;24531;45.502;12.238;2023-11-18T06:56:54;19.33;;;13.45;;
38783;SDS011;24531;45.502;12.238;2023-11-18T06:59:20;19.10;;;13.73;;
38783;SDS011;24531;45.502;12.238;2023-11-18T07:01:45;22.23;;;13.50;;
38783;SDS011;24531;45.502;12.238;2023-11-18T07:04:11;21.13;;;14.30;;
38783;SDS011;24531;45.502;12.238;2023-11-18T07:06:37;20.38;;;13.60;;
38783;SDS011;24531;45.502;12.238;2023-11-18T07:09:07;21.20;;;14.15;;
38783;SDS011;24531;45.502;12.238;2023-11-18T07:11:42;20.83;;;14.90;;
38783;SDS011;24531;45.502;12.238;2023-11-18T07:14:09;22.40;;;15.15;;
38783;SDS011;24531;45.502;12.238;2023-11-18T07:16:40;21.75;;;14.00;;
38783;SDS011;24531;45.502;12.238;2023-11-18T07:19:06;20.98;;;14.57;;
38783;SDS011;24531;45.502;12.238;2023-11-18T07:21:33;20.92;;;13.80;;
38783;SDS011;24531;45.502;12.238;2023-11-18T07:23:59;19.35;;;13.02;;
38783;SDS011;24531;45.502;12.238;2023-11-18T07:26:25;21.73;;;13.68;;
38783;SDS011;24531;45.502;12.238;2023-11-18T07:28:51;17.13;;;11.52;;
38783;SDS011;24531;45.502;12.238;2023-11-18T07:31:17;22.83;;;12.65;;
38783;SDS011;24531;45.502;12.238;2023-11-18T07:33:46;18.63;;;11.43;;
38783;SDS011;24531;45.502;12.238;2023-11-18T07:36:17;20.50;;;11.82;;
38783;SDS011;24531;45.502;12.238;2023-11-18T07:38:45;16.73;;;11.57;;
38783;SDS011;24531;45.502;12.238;2023-11-18T07:41:11;19.25;;;11.15;;
38783;SDS011;24531;45.502;12.238;2023-11-18T07:43:48;14.45;;;9.40;;
38783;SDS011;24531;45.502;12.238;2023-11-18T07:46:21;17.40;;;10.52;;
38783;SDS011;24531;45.502;12.238;2023-11-18T07:48:50;15.80;;;10.18;;
38783;SDS011;24531;45.502;12.238;2023-11-18T07:51:17;19.48;;;10.77;;
38783;SDS011;24531;45.502;12.238;2023-11-18T07:53:46;11.98;;;9.45;;
38783;SDS011;24531;45.502;12.238;2023-11-18T07:56:13;14.23;;;9.15;;
38783;SDS011;24531;45.502;12.238;2023-11-18T07:58:39;13.90;;;9.35;;
38783;SDS011;24531;45.502;12.238;2023-11-18T08:01:10;13.25;;;9.68;;
38783;SDS011;24531;45.502;12.238;2023-11-18T08:03:41;12.68;;;8.45;;
38783;SDS011;24531;45.502;12.238;2023-11-18T08:06:07;11.48;;;8.98;;
38783;SDS011;24531;45.502;12.238;2023-11-18T08:08:33;15.68;;;8.43;;
38783;SDS011;24531;45.502;12.238;2023-11-18T08:11:02;12.35;;;8.20;;
38783;SDS011;24531;45.502;12.238;2023-11-18T08:13:28;13.65;;;8.93;;
38783;SDS011;24531;45.502;12.238;2023-11-18T08:15:53;11.02;;;7.88;;
38783;SDS011;24531;45.502;12.238;2023-11-18T08:18:19;12.57;;;8.15;;
38783;SDS011;24531;45.502;12.238;2023-11-18T08:20:46;12.18;;;8.05;;
38783;SDS011;24531;45.502;12.238;2023-11-18T08:23:12;10.23;;;6.75;;
38783;SDS011;24531;45.502;12.238;2023-11-18T08:25:38;11.48;;;7.05;;
38783;SDS011;24531;45.502;12.238;2023-11-18T08:28:05;9.20;;;5.97;;
38783;SDS011;24531;45.502;12.238;2023-11-18T08:30:32;13.38;;;6.25;;
38783;SDS011;24531;45.502;12.238;2023-11-18T08:33:04;7.05;;;5.38;;
38783;SDS011;24531;45.502;12.238;2023-11-18T08:35:33;9.05;;;5.60;;
38783;SDS011;24531;45.502;12.238;2023-11-18T08:38:02;7.40;;;5.32;;
38783;SDS011;24531;45.502;12.238;2023-11-18T08:40:29;8.40;;;4.90;;
38783;SDS011;24531;45.502;12.238;2023-11-18T08:42:55;7.18;;;5.28;;
38783;SDS011;24531;45.502;12.238;2023-11-18T08:45:21;8.50;;;5.35;;
38783;SDS011;24531;45.502;12.238;2023-11-18T08:47:53;7.75;;;4.47;;
38783;SDS011;24531;45.502;12.238;2023-11-18T08:50:20;8.13;;;4.95;;
38783;SDS011;24531;45.502;12.238;2023-11-18T08:52:49;11.02;;;4.95;;
38783;SDS011;24531;45.502;12.238;2023-11-18T08:55:18;7.22;;;4.45;;
38783;SDS011;24531;45.502;12.238;2023-11-18T08:57:48;6.25;;;4.13;;
38783;SDS011;24531;45.502;12.238;2023-11-18T09:00:32;6.28;;;4.13;;
38783;SDS011;24531;45.502;12.238;2023-11-18T09:03:13;5.53;;;3.72;;
38783;SDS011;24531;45.502;12.238;2023-11-18T09:05:59;9.18;;;4.75;;
38783;SDS011;24531;45.502;12.238;2023-11-18T09:11:01;8.40;;;3.67;;
38783;SDS011;24531;45.502;12.238;2023-11-18T09:13:30;7.35;;;4.30;;
38783;SDS011;24531;45.502;12.238;2023-11-18T09:15:57;6.50;;;3.50;;
38783;SDS011;24531;45.502;12.238;2023-11-18T09:18:25;5.32;;;3.35;;
38783;SDS011;24531;45.502;12.238;2023-11-18T09:20:52;5.95;;;3.72;;
38783;SDS011;24531;45.502;12.238;2023-11-18T09:23:24;5.95;;;3.50;;
38783;SDS011;24531;45.502;12.238;2023-11-18T09:25:52;5.70;;;3.47;;
38783;SDS011;24531;45.502;12.238;2023-11-18T09:28:19;5.35;;;3.28;;
38783;SDS011;24531;45.502;12.238;2023-11-18T09:30:45;4.97;;;3.10;;
38783;SDS011;24531;45.502;12.238;2023-11-18T09:33:17;5.78;;;2.67;;
38783;SDS011;24531;45.502;12.238;2023-11-18T09:36:13;6.32;;;3.10;;
38783;SDS011;24531;45.502;12.238;2023-11-18T09:38:39;6.85;;;3.38;;
38783;SDS011;24531;45.502;12.238;2023-11-18T09:41:06;4.85;;;3.13;;
38783;SDS011;24531;45.502;12.238;2023-11-18T09:43:39;4.75;;;3.08;;
38783;SDS011;24531;45.502;12.238;2023-11-18T09:46:15;4.78;;;3.08;;
38783;SDS011;24531;45.502;12.238;2023-11-18T09:53:50;2.95;;;2.15;;
38783;SDS011;24531;45.502;12.238;2023-11-18T09:59:12;12.82;;;3.10;;
38783;SDS011;24531;45.502;12.238;2023-11-18T10:01:46;4.07;;;2.70;;
38783;SDS011;24531;45.502;12.238;2023-11-18T10:04:18;3.35;;;2.33;;
38783;SDS011;24531;45.502;12.238;2023-11-18T10:06:45;3.88;;;2.65;;
38783;SDS011;24531;45.502;12.238;2023-11-18T10:09:13;8.07;;;2.83;;
38783;SDS011;24531;45.502;12.238;2023-11-18T10:11:43;4.95;;;3.17;;
38783;SDS011;24531;45.502;12.238;2023-11-18T10:14:11;4.50;;;2.95;;
38783;SDS011;24531;45.502;12.238;2023-11-18T10:16:40;6.47;;;2.97;;
38783;SDS011;24531;45.502;12.238;2023-11-18T10:19:06;3.80;;;2.63;;
38783;SDS011;24531;45.502;12.238;2023-11-18T10:21:37;5.10;;;2.78;;
38783;SDS011;24531;45.502;12.238;2023-11-18T10:24:08;4.07;;;2.42;;
38783;SDS011;24531;45.502;12.238;2023-11-18T10:26:44;4.78;;;2.50;;
38783;SDS011;24531;45.502;12.238;2023-11-18T10:29:11;3.80;;;2.40;;
38783;SDS011;24531;45.502;12.238;2023-11-18T10:31:38;3.67;;;2.33;;
38783;SDS011;24531;45.502;12.238;2023-11-18T10:34:13;2.80;;;2.10;;
38783;SDS011;24531;45.502;12.238;2023-11-18T10:36:41;5.28;;;2.72;;
38783;SDS011;24531;45.502;12.238;2023-11-18T10:39:10;4.20;;;2.50;;
38783;SDS011;24531;45.502;12.238;2023-11-18T10:41:41;4.35;;;2.67;;
38783;SDS011;24531;45.502;12.238;2023-11-18T10:44:08;4.72;;;2.55;;
38783;SDS011;24531;45.502;12.238;2023-11-18T10:46:52;4.32;;;2.50;;
38783;SDS011;24531;45.502;12.238;2023-11-18T10:49:20;5.18;;;2.38;;
38783;SDS011;24531;45.502;12.238;2023-11-18T10:51:46;5.07;;;2.63;;
38783;SDS011;24531;45.502;12.238;2023-11-18T10:54:12;7.55;;;2.25;;
38783;SDS011;24531;45.502;12.238;2023-11-18T10:56:49;3.90;;;2.50;;
38783;SDS011;24531;45.502;12.238;2023-11-18T10:59:15;2.75;;;2.25;;
38783;SDS011;24531;45.502;12.238;2023-11-18T11:01:44;2.95;;;2.22;;
38783;SDS011;24531;45.502;12.238;2023-11-18T11:06:40;4.57;;;2.53;;
38783;SDS011;24531;45.502;12.238;2023-11-18T11:09:07;4.15;;;2.90;;
38783;SDS011;24531;45.502;12.238;2023-11-18T11:11:57;3.83;;;3.03;;
38783;SDS011;24531;45.502;12.238;2023-11-18T11:14:32;4.53;;;2.72;;
38783;SDS011;24531;45.502;12.238;2023-11-18T11:17:06;4.40;;;2.67;;
38783;SDS011;24531;45.502;12.238;2023-11-18T11:19:49;3.75;;;2.88;;
38783;SDS011;24531;45.502;12.238;2023-11-18T11:22:25;5.88;;;3.13;;
38783;SDS011;24531;45.502;12.238;2023-11-18T11:27:41;4.18;;;2.75;;
38783;SDS011;24531;45.502;12.238;2023-11-18T11:30:22;3.55;;;2.50;;
38783;SDS011;24531;45.502;12.238;2023-11-18T11:35:23;5.18;;;3.45;;
38783;SDS011;24531;45.502;12.238;2023-11-18T11:37:56;5.22;;;3.20;;
38783;SDS011;24531;45.502;12.238;2023-11-18T11:40:30;4.63;;;3.10;;
38783;SDS011;24531;45.502;12.238;2023-11-18T11:42:57;4.13;;;2.92;;
38783;SDS011;24531;45.502;12.238;2023-11-18T11:45:26;4.53;;;2.97;;
38783;SDS011;24531;45.502;12.238;2023-11-18T11:47:57;5.05;;;2.78;;
38783;SDS011;24531;45.502;12.238;2023-11-18T11:53:20;3.25;;;2.30;;
38783;SDS011;24531;45.502;12.238;2023-11-18T11:55:54;2.40;;;2.13;;
38783;SDS011;24531;45.502;12.238;2023-11-18T11:58:34;7.18;;;2.47;;
38783;SDS011;24531;45.502;12.238;2023-11-18T12:03:58;3.20;;;2.25;;
38783;SDS011;24531;45.502;12.238;2023-11-18T12:09:03;3.38;;;2.50;;
38783;SDS011;24531;45.502;12.238;2023-11-18T12:11:33;4.22;;;2.63;;
38783;SDS011;24531;45.502;12.238;2023-11-18T12:14:05;4.13;;;2.53;;
38783;SDS011;24531;45.502;12.238;2023-11-18T12:19:38;5.68;;;2.90;;
38783;SDS011;24531;45.502;12.238;2023-11-18T12:22:14;3.88;;;2.70;;
38783;SDS011;24531;45.502;12.238;2023-11-18T12:24:45;3.50;;;2.80;;
38783;SDS011;24531;45.502;12.238;2023-11-18T12:27:13;4.13;;;3.30;;
38783;SDS011;24531;45.502;12.238;2023-11-18T12:29:59;4.28;;;2.65;;
38783;SDS011;24531;45.502;12.238;2023-11-18T12:47:02;3.92;;;2.88;;
38783;SDS011;24531;45.502;12.238;2023-11-18T12:49:40;4.40;;;2.50;;
38783;SDS011;24531;45.502;12.238;2023-11-18T12:52:10;5.53;;;3.40;;
38783;SDS011;24531;45.502;12.238;2023-11-18T12:54:40;4.38;;;2.65;;
38783;SDS011;24531;45.502;12.238;2023-11-18T12:57:12;4.32;;;2.85;;
38783;SDS011;24531;45.502;12.238;2023-11-18T12:59:41;4.15;;;2.80;;
38783;SDS011;24531;45.502;12.238;2023-11-18T13:02:08;6.75;;;2.83;;
38783;SDS011;24531;45.502;12.238;2023-11-18T13:04:38;4.10;;;2.88;;
38783;SDS011;24531;45.502;12.238;2023-11-18T13:07:07;5.63;;;3.67;;
38783;SDS011;24531;45.502;12.238;2023-11-18T13:09:36;5.88;;;3.53;;
38783;SDS011;24531;45.502;12.238;2023-11-18T13:12:03;4.32;;;3.05;;
38783;SDS011;24531;45.502;12.238;2023-11-18T13:14:32;6.07;;;3.55;;
38783;SDS011;24531;45.502;12.238;2023-11-18T13:17:02;4.72;;;3.15;;
38783;SDS011;24531;45.502;12.238;2023-11-18T13:19:31;4.32;;;3.20;;
38783;SDS011;24531;45.502;12.238;2023-11-18T13:22:03;5.85;;;3.50;;
38783;SDS011;24531;45.502;12.238;2023-11-18T13:24:30;4.75;;;2.53;;
38783;SDS011;24531;45.502;12.238;2023-11-18T13:26:56;4.18;;;2.95;;
38783;SDS011;24531;45.502;12.238;2023-11-18T13:29:23;4.72;;;2.92;;
38783;SDS011;24531;45.502;12.238;2023-11-18T13:31:49;4.72;;;2.80;;
38783;SDS011;24531;45.502;12.238;2023-11-18T13:34:19;5.28;;;3.67;;
38783;SDS011;24531;45.502;12.238;2023-11-18T13:36:47;4.47;;;2.92;;
38783;SDS011;24531;45.502;12.238;2023-11-18T13:39:18;3.80;;;3.08;;
38783;SDS011;24531;45.502;12.238;2023-11-18T13:41:44;4.32;;;3.30;;
38783;SDS011;24531;45.502;12.238;2023-11-18T13:44:13;4.40;;;2.70;;
38783;SDS011;24531;45.502;12.238;2023-11-18T13:47:00;5.05;;;2.60;;
38783;SDS011;24531;45.502;12.238;2023-11-18T13:49:27;4.38;;;3.10;;
38783;SDS011;24531;45.502;12.238;2023-11-18T13:51:54;4.93;;;2.90;;
38783;SDS011;24531;45.502;12.238;2023-11-18T13:54:21;6.43;;;3.53;;
38783;SDS011;24531;45.502;12.238;2023-11-18T13:56:47;5.13;;;2.80;;
38783;SDS011;24531;45.502;12.238;2023-11-18T13:59:14;5.18;;;3.28;;
38783;SDS011;24531;45.502;12.238;2023-11-18T14:01:40;4.72;;;3.25;;
38783;SDS011;24531;45.502;12.238;2023-11-18T14:04:06;4.60;;;2.88;;
38783;SDS011;24531;45.502;12.238;2023-11-18T14:06:35;6.32;;;2.90;;
38783;SDS011;24531;45.502;12.238;2023-11-18T14:09:02;4.22;;;2.40;;
38783;SDS011;24531;45.502;12.238;2023-11-18T14:11:29;6.30;;;3.15;;
38783;SDS011;24531;45.502;12.238;2023-11-18T14:13:55;4.78;;;3.17;;
38783;SDS011;24531;45.502;12.238;2023-11-18T14:16:21;4.28;;;2.60;;
38783;SDS011;24531;45.502;12.238;2023-11-18T14:18:48;4.55;;;3.00;;
38783;SDS011;24531;45.502;12.238;2023-11-18T14:21:14;5.93;;;3.13;;
38783;SDS011;24531;45.502;12.238;2023-11-18T14:23:40;3.53;;;2.67;;
38783;SDS011;24531;45.502;12.238;2023-11-18T14:26:06;6.88;;;3.20;;
38783;SDS011;24531;45.502;12.238;2023-11-18T14:28:33;4.20;;;2.53;;
38783;SDS011;24531;45.502;12.238;2023-11-18T14:31:00;2.83;;;2.17;;
38783;SDS011;24531;45.502;12.238;2023-11-18T14:33:29;4.93;;;3.00;;
38783;SDS011;24531;45.502;12.238;2023-11-18T14:35:58;4.45;;;3.50;;
38783;SDS011;24531;45.502;12.238;2023-11-18T14:38:26;4.57;;;3.30;;
38783;SDS011;24531;45.502;12.238;2023-11-18T14:40:52;5.95;;;3.60;;
38783;SDS011;24531;45.502;12.238;2023-11-18T14:43:18;3.95;;;3.03;;
38783;SDS011;24531;45.502;12.238;2023-11-18T14:45:44;4.88;;;3.42;;
38783;SDS011;24531;45.502;12.238;2023-11-18T14:48:10;6.72;;;3.67;;
38783;SDS011;24531;45.502;12.238;2023-11-18T14:50:36;7.85;;;3.78;;
38783;SDS011;24531;45.502;12.238;2023-11-18T14:53:03;6.20;;;4.18;;
38783;SDS011;24531;45.502;12.238;2023-11-18T14:55:30;9.98;;;4.05;;
38783;SDS011;24531;45.502;12.238;2023-11-18T14:57:57;12.98;;;5.03;;
38783;SDS011;24531;45.502;12.238;2023-11-18T15:00:23;7.82;;;3.97;;
38783;SDS011;24531;45.502;12.238;2023-11-18T15:02:53;9.13;;;4.65;;
38783;SDS011;24531;45.502;12.238;2023-11-18T15:05:22;6.20;;;4.40;;
38783;SDS011;24531;45.502;12.238;2023-11-18T15:07:50;8.57;;;3.42;;
38783;SDS011;24531;45.502;12.238;2023-11-18T15:10:18;6.68;;;3.92;;
38783;SDS011;24531;45.502;12.238;2023-11-18T15:12:54;7.53;;;4.18;;
38783;SDS011;24531;45.502;12.238;2023-11-18T15:15:23;4.55;;;3.72;;